Time;durP1;ratioP1;P1;durP2;ratioP2;P2;SDS_P1;SDS_P2;PMS_P1;PMS_P2;Temp;Humidity;BMP_temperature;BMP_pressure;BME280_temperature;BME280_humidity;BME280_pressure;Samples;Min_cycle;Max_cycle;Signal;HPM_P1;HPM_P2
2022/01/18 00:00:54;;;;;;;34.83;14.25;;;;;;;-2.05;100.00;96867.81;4964977;28;20034;-69
2022/01/18 00:03:21;;;;;;;35.63;14.77;;;;;;;-2.19;100.00;96855.03;4966396;28;20112;-70
2022/01/18 00:05:49;;;;;;;30.30;13.55;;;;;;;-2.14;100.00;96873.94;4982498;28;20050;-66
2022/01/18 00:08:16;;;;;;;30.90;13.68;;;;;;;-2.13;100.00;96877.41;4998689;28;20045;-69
2022/01/18 00:10:43;;;;;;;33.70;14.27;;;;;;;-2.17;100.00;96874.22;4982849;28;20034;-69
2022/01/18 00:13:24;;;;;;;35.20;14.75;;;;;;;-2.29;100.00;96862.94;4999135;28;20465;-68
2022/01/18 00:18:33;;;;;;;32.75;15.45;;;;;;;-2.15;100.00;96895.25;4999933;28;20137;-67
2022/01/18 00:23:35;;;;;;;34.47;15.93;;;;;;;-2.10;100.00;96912.38;4998067;28;20053;-68
2022/01/18 00:26:02;;;;;;;35.88;15.15;;;;;;;-2.33;100.00;96882.72;4979462;28;20597;-66
2022/01/18 00:28:29;;;;;;;35.17;15.75;;;;;;;-2.10;100.00;96924.78;5012974;28;20061;-67
2022/01/18 00:36:08;;;;;;;36.75;15.30;;;;;;;-2.07;100.00;96935.09;4979145;28;20525;-66
2022/01/18 00:38:45;;;;;;;36.85;16.00;;;;;;;-2.09;100.00;96942.31;4980121;28;20042;-66
2022/01/18 00:41:12;;;;;;;37.13;16.38;;;;;;;-2.16;100.00;96933.25;4980968;28;20069;-68
2022/01/18 00:43:39;;;;;;;37.45;15.93;;;;;;;-2.08;100.00;96954.59;5011969;28;20054;-66
2022/01/18 00:46:05;;;;;;;33.40;14.95;;;;;;;-2.07;100.00;96956.25;5012555;28;20092;-67
2022/01/18 00:48:33;;;;;;;36.97;16.08;;;;;;;-2.07;100.00;96957.09;5013355;28;20516;-67
2022/01/18 00:50:59;;;;;;;39.65;16.95;;;;;;;-2.12;100.00;96966.41;4997685;28;20467;-67
2022/01/18 00:53:26;;;;;;;32.25;14.57;;;;;;;-2.05;100.00;96971.03;4997106;28;20046;-68
2022/01/18 00:58:41;;;;;;;41.65;16.45;;;;;;;-2.05;100.00;96978.97;4983860;28;20045;-67
2022/01/18 01:01:08;;;;;;;34.08;15.50;;;;;;;-2.02;100.00;96985.78;4997583;28;20195;-68
2022/01/18 01:03:34;;;;;;;37.40;15.93;;;;;;;-2.03;100.00;96994.72;5013223;28;20052;-67
2022/01/18 01:06:00;;;;;;;38.58;15.68;;;;;;;-2.04;100.00;96998.34;5015256;28;20099;-70
2022/01/18 01:08:26;;;;;;;41.20;16.27;;;;;;;-2.04;100.00;96998.34;4997266;28;20485;-66
2022/01/18 01:10:52;;;;;;;36.90;15.85;;;;;;;-2.03;100.00;97000.00;4964457;28;20041;-66
2022/01/18 01:13:18;;;;;;;38.50;15.77;;;;;;;-2.08;100.00;96995.13;4996093;28;20056;-68
2022/01/18 01:45:18;;;;;;;42.33;16.77;;;;;;;-2.03;100.00;97045.00;5014156;28;20054;-67
2022/01/18 01:47:49;;;;;;;40.78;17.75;;;;;;;-2.01;100.00;97056.28;5014114;28;20068;-67
2022/01/18 01:50:19;;;;;;;42.20;18.17;;;;;;;-2.16;100.00;97033.81;5012587;28;20128;-68
2022/01/18 01:52:46;;;;;;;;;;;;;;;-1.97;100.00;97069.13;5014920;28;20132;-67
2022/01/18 01:55:12;;;;;;;37.55;15.50;;;;;;;-1.97;100.00;97060.34;5013633;28;19969;-67
2022/01/18 01:57:38;;;;;;;44.70;19.35;;;;;;;-2.05;100.00;97063.69;4981549;28;20068;-65
2022/01/18 02:00:06;;;;;;;44.10;18.48;;;;;;;-2.22;100.00;97037.88;4996677;28;20046;-70
2022/01/18 02:02:32;;;;;;;40.97;17.80;;;;;;;-2.03;100.00;97077.59;5013264;28;20041;-66
2022/01/18 02:05:00;;;;;;;42.97;18.45;;;;;;;-2.00;100.00;97084.44;5014194;28;20481;-66
2022/01/18 02:07:25;;;;;;;38.65;16.60;;;;;;;-1.98;100.00;97087.75;5012352;28;20096;-68
2022/01/18 02:09:51;;;;;;;43.72;16.83;;;;;;;-1.92;100.00;97091.69;4996184;28;20045;-66
2022/01/18 02:12:18;;;;;;;44.78;17.33;;;;;;;-2.15;100.00;97076.03;4995747;28;20046;-65
2022/01/18 02:14:50;;;;;;;43.05;18.52;;;;;;;-2.10;100.00;97083.56;5011587;28;20050;-67
2022/01/18 02:22:50;;;;;;;40.55;17.08;;;;;;;-1.95;100.00;97113.97;5012754;28;20052;-67
2022/01/18 02:25:16;;;;;;;37.33;16.45;;;;;;;-2.08;100.00;97097.53;5010653;28;20045;-67
2022/01/18 02:27:41;;;;;;;36.90;16.13;;;;;;;-1.88;100.00;97141.56;5010887;28;20049;-67
2022/01/18 02:30:08;;;;;;;42.13;17.08;;;;;;;-2.13;100.00;97110.31;4977433;28;20458;-66
2022/01/18 02:32:34;;;;;;;34.83;16.50;;;;;;;-2.29;100.00;97085.19;5011591;28;20070;-66
2022/01/18 02:35:00;;;;;;;33.55;14.90;;;;;;;-1.95;100.00;97151.03;5011765;28;20073;-67
2022/01/18 02:37:26;;;;;;;34.92;16.45;;;;;;;-1.92;100.00;97161.34;4993409;28;20042;-67
2022/01/18 02:39:53;;;;;;;38.47;15.55;;;;;;;-2.05;100.00;97139.56;5009641;28;20054;-67
2022/01/18 02:42:27;;;;;;;30.35;14.23;;;;;;;-2.05;100.00;97155.44;5010931;28;20046;-66
2022/01/18 02:44:53;;;;;;;30.30;13.07;;;;;;;-1.96;100.00;97175.84;5011074;28;20501;-66
2022/01/18 02:47:20;;;;;;;32.10;14.38;;;;;;;-1.94;100.00;97184.47;5009728;28;20050;-65
2022/01/18 02:49:47;;;;;;;31.02;13.32;;;;;;;-1.97;100.00;97190.06;5009362;28;20593;-66
2022/01/18 02:52:14;;;;;;;29.95;13.00;;;;;;;-1.93;100.00;97201.22;5008968;28;20060;-66
2022/01/18 02:54:40;;;;;;;30.80;12.93;;;;;;;-2.19;100.00;97159.31;5009694;28;20061;-65
2022/01/18 02:57:11;;;;;;;23.02;9.80;;;;;;;-2.01;100.00;97204.50;5009046;28;20042;-67
2022/01/18 03:00:06;;;;;;;24.42;10.98;;;;;;;-2.11;100.00;97214.22;5011030;28;20151;-67
2022/01/18 03:05:17;;;;;;;23.75;9.98;;;;;;;-2.13;100.00;97218.81;5010564;28;20081;-65
2022/01/18 03:07:43;;;;;;;23.15;9.60;;;;;;;-2.38;100.00;97197.09;4979671;28;20045;-68
2022/01/18 03:10:12;;;;;;;22.40;9.77;;;;;;;-2.21;100.00;97222.94;5014862;28;20057;-66
2022/01/18 03:12:38;;;;;;;24.63;10.30;;;;;;;-2.24;100.00;97230.31;5015476;28;20060;-69
2022/01/18 03:15:04;;;;;;;26.10;10.75;;;;;;;-2.22;100.00;97247.75;5015229;28;20058;-68
2022/01/18 03:17:30;;;;;;;21.48;9.05;;;;;;;-2.27;100.00;97257.88;5013070;28;20136;-66
2022/01/18 03:19:57;;;;;;;20.55;9.27;;;;;;;-2.35;100.00;97257.69;5010317;28;20120;-66
2022/01/18 03:22:23;;;;;;;18.98;7.95;;;;;;;-2.36;100.00;97263.13;5010922;28;20092;-66
2022/01/18 03:30:04;;;;;;;18.90;7.75;;;;;;;-2.62;100.00;97273.25;5014097;28;20363;-69
2022/01/18 03:32:30;;;;;;;19.58;8.88;;;;;;;-2.49;100.00;97295.03;5012876;28;20566;-68
2022/01/18 03:34:56;;;;;;;17.40;7.18;;;;;;;-2.63;100.00;97295.34;5012997;28;20145;-68
2022/01/18 03:37:21;;;;;;;16.45;7.68;;;;;;;-2.58;100.00;97307.22;5013858;28;20111;-67
2022/01/18 03:39:47;;;;;;;19.60;8.18;;;;;;;-2.51;100.00;97334.03;4998047;28;20045;-66
2022/01/18 03:42:35;;;;;;;21.02;8.68;;;;;;;-2.70;100.00;97317.03;5015218;28;20177;-69
2022/01/18 03:45:02;;;;;;;19.40;7.68;;;;;;;-2.61;100.00;97338.38;4983907;28;20088;-71
2022/01/18 03:47:30;;;;;;;;;;;;;;;-2.58;100.00;97338.13;5015408;28;20157;-66
2022/01/18 03:49:56;;;;;;;22.35;9.15;;;;;;;-2.97;100.00;97300.75;5015030;28;20067;-68
2022/01/18 03:52:22;;;;;;;16.30;7.18;;;;;;;-2.55;100.00;97348.47;4980883;28;20148;-69
2022/01/18 03:54:50;;;;;;;17.83;7.47;;;;;;;-2.62;100.00;97353.41;4981236;28;20049;-69
2022/01/18 03:57:17;;;;;;;17.35;7.35;;;;;;;-2.69;100.00;97342.50;4980027;28;20196;-66
2022/01/18 03:59:43;;;;;;;18.08;8.25;;;;;;;-2.84;100.00;97322.59;4979216;28;20103;-68
2022/01/18 04:02:09;;;;;;;15.55;7.25;;;;;;;-2.69;100.00;97363.66;5013140;28;20151;-68
2022/01/18 04:04:36;;;;;;;15.52;6.22;;;;;;;-2.58;100.00;97376.00;5011856;28;20042;-68
2022/01/18 04:07:03;;;;;;;17.23;6.40;;;;;;;-2.80;100.00;97355.75;5011971;28;20042;-68
2022/01/18 04:09:29;;;;;;;15.40;5.55;;;;;;;-2.67;100.00;97388.19;5012888;28;20045;-68
2022/01/18 04:11:56;;;;;;;12.82;5.38;;;;;;;-2.92;100.00;97346.19;4995548;28;20134;-68
2022/01/18 04:14:23;;;;;;;15.85;5.72;;;;;;;-2.71;100.00;97386.72;5013057;28;20409;-68
2022/01/18 04:17:13;;;;;;;13.95;4.85;;;;;;;-2.71;100.00;97397.28;5012809;28;20271;-67
2022/01/18 04:27:44;;;;;;;10.50;4.35;;;;;;;-2.67;100.00;97426.97;4995409;28;20513;-68
2022/01/18 04:30:11;;;;;;;15.02;4.95;;;;;;;-2.65;100.00;97432.16;4995941;28;20144;-66
2022/01/18 04:32:36;;;;;;;13.73;5.22;;;;;;;-2.64;100.00;97444.41;5012198;28;20057;-68
2022/01/18 04:35:03;;;;;;;12.60;4.47;;;;;;;-3.00;100.00;97386.44;4995143;28;20165;-69
2022/01/18 04:37:29;;;;;;;13.27;4.82;;;;;;;-2.83;100.00;97414.16;4980356;28;20112;-68
2022/01/18 04:39:55;;;;;;;12.20;4.88;;;;;;;-2.67;100.00;97467.50;5011277;28;20045;-69
2022/01/18 04:42:46;;;;;;;11.82;4.20;;;;;;;-2.63;100.00;97472.53;5012238;28;20065;-68
2022/01/18 04:50:40;;;;;;;12.90;4.78;;;;;;;-2.61;100.00;97510.28;5011253;28;20056;-68
2022/01/18 04:53:06;;;;;;;11.80;4.30;;;;;;;-2.58;100.00;97507.41;4962295;28;20042;-68
2022/01/18 04:55:35;;;;;;;12.25;4.60;;;;;;;-2.63;100.00;97521.00;5011188;28;20057;-71
2022/01/18 04:58:01;;;;;;;14.48;4.97;;;;;;;-2.92;100.00;97488.91;4978396;28;20041;-69
2022/01/18 05:00:29;;;;;;;11.90;4.57;;;;;;;-2.74;100.00;97521.00;4994625;28;20060;-68
2022/01/18 05:02:55;;;;;;;12.20;4.47;;;;;;;-2.75;100.00;97528.06;5010842;28;20128;-69
2022/01/18 05:05:26;;;;;;;9.18;3.47;;;;;;;-2.73;100.00;97542.03;4994408;28;20561;-69
2022/01/18 05:07:54;;;;;;;11.52;3.85;;;;;;;-2.73;100.00;97547.31;4995355;28;20359;-69
2022/01/18 05:10:23;;;;;;;9.98;3.35;;;;;;;-2.81;100.00;97548.88;5011265;28;20108;-69
2022/01/18 05:12:52;;;;;;;9.80;3.25;;;;;;;-2.88;100.00;97532.66;5012753;28;20046;-68
2022/01/18 05:15:44;;;;;;;9.73;3.13;;;;;;;-2.74;100.00;97572.06;4995332;28;20554;-68
2022/01/18 05:21:09;;;;;;;10.82;3.80;;;;;;;-3.11;100.00;97520.38;5010830;28;20076;-68
2022/01/18 05:23:31;;;;;;;8.43;3.25;;;;;;;-3.03;100.00;97547.91;5010841;28;20054;-69
2022/01/18 05:25:56;;;;;;;11.38;3.58;;;;;;;-2.81;100.00;97597.31;4993972;28;20064;-69
2022/01/18 05:28:22;;;;;;;9.77;3.40;;;;;;;-2.82;100.00;97600.88;5011650;28;20050;-70
2022/01/18 05:30:48;;;;;;;10.18;3.42;;;;;;;-2.91;100.00;97580.47;4993906;28;20569;-68
2022/01/18 05:33:14;;;;;;;8.48;3.67;;;;;;;-2.74;100.00;97609.09;5011720;28;20053;-68
2022/01/18 05:35:40;;;;;;;9.05;3.45;;;;;;;-2.91;100.00;97617.47;5011962;28;20058;-70
2022/01/18 05:38:06;;;;;;;10.52;3.10;;;;;;;-3.00;100.00;97616.38;4978852;28;20042;-69
2022/01/18 05:40:32;;;;;;;8.77;3.55;;;;;;;-3.03;100.00;97642.22;4994699;28;20054;-69
2022/01/18 05:42:58;;;;;;;8.48;3.05;;;;;;;-3.40;100.00;97585.06;5010580;28;20092;-69
2022/01/18 05:45:24;;;;;;;7.90;2.80;;;;;;;-3.39;100.00;97622.88;4994118;28;20563;-69
2022/01/18 05:47:49;;;;;;;8.75;2.92;;;;;;;-3.24;100.00;97652.59;4993099;28;20137;-73
2022/01/18 05:50:15;;;;;;;9.63;3.47;;;;;;;-3.48;100.00;97634.09;5000659;28;20050;-70
2022/01/18 05:52:41;;;;;;;9.02;3.03;;;;;;;-3.32;100.00;97665.53;5000589;28;20405;-71
2022/01/18 05:55:09;;;;;;;8.88;2.78;;;;;;;-3.57;100.00;97635.63;4978489;28;20038;-71
2022/01/18 05:57:35;;;;;;;11.10;3.70;;;;;;;-3.40;100.00;97674.00;4991035;28;20128;-71
2022/01/18 06:00:04;;;;;;;10.43;3.35;;;;;;;-3.41;100.00;97682.88;4980523;28;20192;-70
2022/01/18 06:08:13;;;;;;;7.88;2.90;;;;;;;-3.61;100.00;97696.72;4985619;28;20479;-69
2022/01/18 06:10:39;;;;;;;9.02;2.75;;;;;;;-3.80;100.00;97682.22;4984118;28;20042;-70
2022/01/18 06:13:07;;;;;;;8.80;3.00;;;;;;;-3.66;100.00;97708.47;4965241;28;20181;-70
2022/01/18 06:15:34;;;;;;;9.80;3.10;;;;;;;-3.69;100.00;97721.88;5006531;28;20058;-70
2022/01/18 06:18:00;;;;;;;8.27;2.78;;;;;;;-3.76;100.00;97718.00;4995840;28;20219;-70
2022/01/18 06:20:26;;;;;;;8.18;2.53;;;;;;;-3.72;100.00;97722.09;4979984;28;20039;-69
2022/01/18 06:22:52;;;;;;;12.43;3.45;;;;;;;-3.76;100.00;97731.19;4949390;28;20076;-69
2022/01/18 06:25:21;;;;;;;9.40;3.05;;;;;;;-3.67;100.00;97737.59;4997480;28;20057;-70
2022/01/18 06:27:47;;;;;;;9.25;2.80;;;;;;;-3.73;100.00;97736.25;5006801;28;20065;-71
2022/01/18 06:30:13;;;;;;;9.70;3.70;;;;;;;-3.77;100.00;97732.13;5006131;28;20061;-69
2022/01/18 06:32:43;;;;;;;10.63;3.13;;;;;;;-3.74;100.00;97755.66;4990322;28;20572;-70
2022/01/18 06:35:10;;;;;;;9.68;3.10;;;;;;;-4.06;100.00;97701.69;4995926;28;20466;-71
2022/01/18 06:37:36;;;;;;;9.82;3.58;;;;;;;-3.78;100.00;97766.56;4988932;28;20042;-70
2022/01/18 06:44:17;;;;;;;9.73;2.80;;;;;;;-3.78;100.00;97788.50;5034685;22;20194;-67
2022/01/18 06:46:43;;;;;;;8.18;2.80;;;;;;;-3.74;100.00;97795.25;5008121;28;20135;-68
2022/01/18 06:49:09;;;;;;;10.43;3.50;;;;;;;-3.76;100.00;97794.53;4989045;28;20132;-69
2022/01/18 07:34:17;;;;;;;8.57;2.67;;;;;;;-3.90;94.93;97855.38;4994696;28;20172;-67
2022/01/18 07:36:42;;;;;;;8.40;2.70;;;;;;;-3.49;95.48;97917.66;4974586;28;20062;-67
2022/01/18 07:39:09;;;;;;;8.98;2.75;;;;;;;-3.62;96.44;97907.09;4941946;28;20053;-67
2022/01/18 07:41:35;;;;;;;9.68;3.35;;;;;;;-3.59;96.55;97921.88;4989880;28;20074;-67
2022/01/18 07:44:03;;;;;;;8.85;2.83;;;;;;;-3.54;97.03;97940.91;4957740;28;20125;-68
2022/01/18 07:46:29;;;;;;;8.65;3.05;;;;;;;-3.50;96.07;97948.53;4940983;28;20089;-68
2022/01/18 07:48:55;;;;;;;6.63;2.00;;;;;;;-3.65;96.62;97924.00;4941188;28;20064;-67
2022/01/18 07:51:20;;;;;;;8.68;2.65;;;;;;;-3.47;97.22;97980.00;4973273;28;20550;-67
2022/01/18 07:53:46;;;;;;;10.20;2.83;;;;;;;-3.54;96.25;97967.34;4973424;28;20129;-68
2022/01/18 07:56:13;;;;;;;9.45;2.90;;;;;;;-3.51;96.47;97988.22;4957671;28;20126;-68
2022/01/18 07:58:39;;;;;;;11.38;3.63;;;;;;;-3.53;95.54;97996.25;4941848;28;20046;-68
2022/01/18 08:01:05;;;;;;;10.02;2.83;;;;;;;-3.61;95.39;98003.03;4973616;28;20046;-67
2022/01/18 08:03:33;;;;;;;7.93;2.83;;;;;;;-3.50;95.87;98000.50;4989586;28;20050;-68
2022/01/18 08:05:59;;;;;;;11.93;2.83;;;;;;;-3.54;94.85;98004.31;4973376;28;20042;-67
2022/01/18 08:08:27;;;;;;;9.40;2.53;;;;;;;-3.58;94.48;97986.94;4972943;28;20415;-68
2022/01/18 08:10:54;;;;;;;10.45;2.63;;;;;;;-3.53;93.43;98037.69;4973881;28;20047;-67
2022/01/18 08:13:25;;;;;;;9.93;2.80;;;;;;;-3.56;93.99;98037.88;4956668;28;20053;-67
2022/01/18 08:15:59;;;;;;;12.30;6.22;;;;;;;-3.61;95.10;98029.44;4944252;28;20042;-67
2022/01/18 08:18:24;;;;;;;7.80;2.47;;;;;;;-3.67;94.21;98022.75;4975680;28;20570;-67
2022/01/18 08:20:50;;;;;;;11.18;3.22;;;;;;;-3.63;94.23;98043.56;4928300;28;20106;-67
2022/01/18 08:23:16;;;;;;;10.15;2.75;;;;;;;-3.52;94.44;98069.25;4945220;28;20398;-68
2022/01/18 08:25:44;;;;;;;8.90;2.72;;;;;;;-3.73;93.76;98047.78;4937191;28;20062;-68
2022/01/18 08:28:10;;;;;;;8.38;2.30;;;;;;;-3.44;93.96;98089.88;4979633;28;20047;-68
2022/01/18 08:30:47;;;;;;;9.30;3.28;;;;;;;-3.45;93.51;98077.63;4952948;28;20104;-68
2022/01/18 08:33:14;;;;;;;13.02;2.65;;;;;;;-3.35;91.46;98094.56;4980423;28;20037;-67
2022/01/18 08:35:40;;;;;;;10.13;2.20;;;;;;;-3.78;91.34;98065.72;4990852;28;20049;-66
2022/01/18 08:38:06;;;;;;;11.20;2.63;;;;;;;-3.40;91.15;98097.50;4986354;28;20061;-68
2022/01/18 08:40:32;;;;;;;7.78;2.60;;;;;;;-3.32;90.30;98091.72;4991672;28;20041;-68
2022/01/18 08:42:57;;;;;;;8.77;2.97;;;;;;;-3.15;88.03;98112.53;4994854;28;20069;-67
2022/01/18 08:45:25;;;;;;;9.40;2.85;;;;;;;-3.31;86.91;98106.59;5018495;28;20042;-67
2022/01/18 08:47:50;;;;;;;8.77;2.85;;;;;;;-3.28;86.58;98109.03;5012581;28;20053;-72
2022/01/18 08:50:19;;;;;;;9.95;2.53;;;;;;;-3.22;85.26;98132.44;4986864;28;20033;-67
2022/01/18 08:52:50;;;;;;;11.25;3.03;;;;;;;-3.10;83.58;98122.81;5035720;28;20408;-70
2022/01/18 08:55:17;;;;;;;12.65;3.13;;;;;;;-3.29;83.33;98110.00;5006272;28;20106;-67
2022/01/18 08:57:43;;;;;;;8.32;2.55;;;;;;;-2.97;84.66;98126.31;4984907;28;20681;-68
2022/01/18 09:00:10;;;;;;;10.68;3.25;;;;;;;-3.19;85.11;98126.91;5018174;28;20148;-67
2022/01/18 09:02:36;;;;;;;10.43;3.20;;;;;;;-3.30;86.73;98129.44;5013159;28;20071;-67
2022/01/18 09:05:03;;;;;;;7.70;2.60;;;;;;;-3.30;86.38;98145.28;5008535;28;20431;-67
2022/01/18 09:07:31;;;;;;;9.77;2.35;;;;;;;-3.23;86.25;98158.94;4985077;28;20089;-67
2022/01/18 09:10:03;;;;;;;9.68;2.90;;;;;;;-3.35;86.12;98147.38;5005988;28;20049;-71
2022/01/18 09:12:31;;;;;;;9.02;2.65;;;;;;;-3.36;87.09;98174.78;4984874;28;20057;-68
2022/01/18 09:14:59;;;;;;;8.07;2.50;;;;;;;-3.28;86.19;98168.97;4977748;28;20105;-67
2022/01/18 09:17:28;;;;;;;5.32;1.70;;;;;;;-3.48;85.05;98167.63;4971998;28;20080;-68
2022/01/18 09:19:54;;;;;;;9.02;2.65;;;;;;;-3.43;84.98;98184.03;4974334;28;20353;-66
2022/01/18 09:22:20;;;;;;;10.40;3.50;;;;;;;-3.47;85.20;98201.03;5003695;28;20077;-69
2022/01/18 09:24:47;;;;;;;7.57;2.13;;;;;;;-3.59;85.06;98162.19;4981869;28;20042;-67
2022/01/18 09:27:13;;;;;;;10.15;3.92;;;;;;;-3.32;84.91;98204.47;4984605;28;20052;-68
2022/01/18 09:29:41;;;;;;;8.05;2.50;;;;;;;-3.39;85.32;98219.88;4954291;28;20092;-68
2022/01/18 09:32:07;;;;;;;8.20;2.42;;;;;;;-3.48;84.41;98233.66;4952391;28;20042;-67
2022/01/18 09:34:35;;;;;;;8.85;2.30;;;;;;;-3.24;84.52;98224.16;4984372;28;20049;-65
2022/01/18 09:37:01;;;;;;;8.02;2.40;;;;;;;-3.27;84.06;98245.50;4985832;28;20132;-68
2022/01/18 09:39:27;;;;;;;7.82;2.15;;;;;;;-3.29;84.36;98234.19;4986294;28;20048;-67
2022/01/18 09:41:54;;;;;;;8.35;2.30;;;;;;;-3.12;83.42;98271.88;4982203;28;20050;-68
2022/01/18 09:44:21;;;;;;;9.38;2.95;;;;;;;-3.43;82.85;98271.22;5004499;28;20049;-71
2022/01/18 09:46:50;;;;;;;7.03;2.20;;;;;;;-3.31;82.58;98265.13;4985781;28;20088;-67
2022/01/18 09:49:17;;;;;;;7.60;2.35;;;;;;;-3.34;82.29;98280.34;4997321;28;20089;-67
2022/01/18 09:51:44;;;;;;;6.78;2.25;;;;;;;-3.55;81.52;98250.84;4979172;28;20050;-68
2022/01/18 09:54:09;;;;;;;6.50;1.70;;;;;;;-3.34;81.11;98296.19;4978713;28;20496;-67
2022/01/18 09:56:35;;;;;;;8.05;1.90;;;;;;;-3.45;80.39;98288.94;5017110;28;20041;-68
2022/01/18 09:59:02;;;;;;;7.38;2.33;;;;;;;-3.75;80.14;98297.84;5022114;28;20472;-68
2022/01/18 10:01:29;;;;;;;7.20;1.80;;;;;;;-3.94;81.09;98290.22;5033327;28;20053;-68
2022/01/18 10:04:15;;;;;;;7.63;2.30;;;;;;;-4.09;81.15;98319.34;5009494;28;20048;-68
2022/01/18 10:06:41;;;;;;;6.63;2.05;;;;;;;-4.05;80.78;98326.13;5014722;28;20049;-67
2022/01/18 10:09:12;;;;;;;6.97;2.47;;;;;;;-4.03;80.47;98329.50;5013374;28;20493;-68
2022/01/18 10:12:02;;;;;;;5.50;1.58;;;;;;;-4.05;80.15;98336.69;4979409;28;20041;-67
2022/01/18 10:14:29;;;;;;;7.00;2.00;;;;;;;-4.06;81.14;98321.78;5020754;28;20049;-68
2022/01/18 10:16:54;;;;;;;8.25;2.25;;;;;;;-3.94;81.52;98343.00;5022586;28;20060;-67
2022/01/18 10:19:42;;;;;;;7.10;2.33;;;;;;;-4.16;80.89;98346.09;4999201;28;20404;-68
2022/01/18 10:22:16;;;;;;;7.47;2.30;;;;;;;-4.22;78.96;98357.00;5006290;28;20041;-66
2022/01/18 10:24:42;;;;;;;8.13;1.80;;;;;;;-4.14;79.24;98380.28;4994302;28;20140;-67
2022/01/18 10:27:09;;;;;;;6.30;1.90;;;;;;;-4.08;78.31;98347.44;5028345;28;20056;-67
2022/01/18 10:29:38;;;;;;;7.22;1.85;;;;;;;-4.14;77.68;98375.00;4991447;28;20067;-69
2022/01/18 10:32:13;;;;;;;6.20;1.50;;;;;;;-4.04;77.82;98388.53;4993130;28;20361;-67
2022/01/18 10:35:04;;;;;;;8.35;1.90;;;;;;;-4.14;79.72;98359.19;5007729;28;20045;-68
2022/01/18 10:37:31;;;;;;;6.70;2.13;;;;;;;-4.04;79.35;98407.00;5008048;28;20045;-68
2022/01/18 10:40:01;;;;;;;8.48;2.33;;;;;;;-4.17;79.07;98391.91;5010285;28;20049;-67
2022/01/18 10:42:41;;;;;;;6.65;2.00;;;;;;;-4.13;79.01;98417.16;5011882;28;20052;-67
2022/01/18 10:45:14;;;;;;;9.00;2.17;;;;;;;-4.55;78.17;98385.34;5013580;28;20037;-67
2022/01/18 10:47:57;;;;;;;6.53;2.10;;;;;;;-4.53;78.42;98409.84;4991477;28;20057;-67
2022/01/18 10:50:25;;;;;;;8.27;1.80;;;;;;;-4.58;77.19;98391.66;4996659;28;20056;-67
2022/01/18 10:52:52;;;;;;;8.43;2.10;;;;;;;-4.42;77.39;98423.28;4971185;28;20050;-68
2022/01/18 10:55:24;;;;;;;5.80;1.60;;;;;;;-4.53;77.49;98425.66;5008391;28;20041;-68
2022/01/18 10:57:50;;;;;;;6.70;1.92;;;;;;;-4.77;76.90;98423.50;5002449;28;20045;-69
2022/01/18 11:00:25;;;;;;;7.57;2.72;;;;;;;-4.47;77.60;98446.41;4994266;28;20131;-68
2022/01/18 11:02:53;;;;;;;7.97;1.85;;;;;;;-4.41;75.63;98430.25;5024476;28;20064;-69
2022/01/18 11:05:29;;;;;;;6.38;2.00;;;;;;;-4.23;75.61;98466.13;5046160;28;20048;-70
2022/01/18 11:07:57;;;;;;;5.53;1.80;;;;;;;-4.29;75.44;98457.72;4993051;28;20147;-68
2022/01/18 11:10:25;;;;;;;7.13;2.33;;;;;;;-4.34;75.22;98468.53;5009136;28;20048;-68
2022/01/18 11:13:02;;;;;;;6.63;2.00;;;;;;;-4.56;75.37;98481.22;5029357;28;20065;-68
2022/01/18 11:15:28;;;;;;;8.68;2.20;;;;;;;-4.66;75.53;98451.88;5025171;28;20038;-69
2022/01/18 11:17:58;;;;;;;7.00;1.70;;;;;;;-4.51;75.69;98487.09;5027174;28;20182;-68
2022/01/18 11:20:29;;;;;;;6.57;1.55;;;;;;;-4.69;75.75;98495.06;5020412;28;20417;-68
2022/01/18 11:22:55;;;;;;;;;;;;;;;-4.50;76.09;98507.25;5028442;28;20083;-67
2022/01/18 11:25:22;;;;;;;5.60;1.50;;;;;;;-4.69;75.79;98515.31;5022276;28;19964;-68
2022/01/18 11:27:51;;;;;;;9.30;3.30;;;;;;;-5.03;76.08;98479.41;5041586;28;20516;-68
2022/01/18 11:30:21;;;;;;;8.25;2.70;;;;;;;-4.88;77.06;98523.38;4987452;28;20122;-68
2022/01/18 11:32:49;;;;;;;10.82;2.50;;;;;;;-4.91;76.70;98536.72;5038165;28;20114;-67
2022/01/18 11:35:24;;;;;;;7.97;2.47;;;;;;;-4.85;77.12;98546.94;4984600;28;20110;-68
2022/01/18 11:38:11;;;;;;;8.88;2.35;;;;;;;-4.99;76.66;98563.50;5029432;28;20453;-69
2022/01/18 11:40:50;;;;;;;14.82;4.50;;;;;;;-4.99;76.43;98562.63;5023999;28;20033;-67
2022/01/18 11:43:36;;;;;;;7.82;2.33;;;;;;;-4.99;76.34;98576.66;5027245;28;20136;-67
2022/01/18 11:46:30;;;;;;;8.50;2.67;;;;;;;-4.95;75.81;98566.81;5003539;28;20133;-68
2022/01/18 11:49:02;;;;;;;9.00;2.40;;;;;;;-4.71;76.06;98580.47;5001250;28;20053;-67
2022/01/18 11:51:44;;;;;;;8.15;2.15;;;;;;;-5.10;74.48;98569.31;5003371;28;20059;-67
2022/01/18 11:54:25;;;;;;;7.78;2.40;;;;;;;-5.26;75.76;98571.06;5018984;28;20400;-67
2022/01/18 11:56:52;;;;;;;7.70;2.00;;;;;;;-5.39;74.72;98584.00;5036616;28;20110;-69
2022/01/18 11:59:19;;;;;;;8.07;1.88;;;;;;;-5.33;75.22;98609.19;5020766;28;20053;-68
2022/01/18 12:01:58;;;;;;;9.25;2.00;;;;;;;-5.30;75.68;98614.31;5016092;28;20037;-68
2022/01/18 12:04:48;;;;;;;5.97;1.85;;;;;;;-5.28;75.54;98596.63;5031299;28;20044;-67
2022/01/18 12:07:36;;;;;;;8.50;2.67;;;;;;;-5.22;74.99;98627.94;5014271;28;20052;-68
2022/01/18 12:10:06;;;;;;;6.60;1.48;;;;;;;-5.23;75.08;98630.63;5031491;28;20045;-67
2022/01/18 12:12:46;;;;;;;6.65;1.85;;;;;;;-5.31;74.87;98633.63;5018386;28;20547;-68
2022/01/18 12:15:15;;;;;;;9.23;2.40;;;;;;;-5.33;75.32;98656.59;5006256;28;20049;-67
2022/01/18 12:18:10;;;;;;;9.00;2.55;;;;;;;-5.46;75.61;98660.75;5040574;28;20053;-68
2022/01/18 12:20:42;;;;;;;6.95;2.00;;;;;;;-5.34;75.91;98673.28;5030168;28;20042;-68
2022/01/18 12:23:43;;;;;;;9.05;1.98;;;;;;;-5.58;75.52;98654.31;5039715;28;20067;-67
2022/01/18 12:29:20;;;;;;;6.13;1.63;;;;;;;-5.34;76.34;98683.84;5042796;28;20513;-67
2022/01/18 12:34:33;;;;;;;7.70;2.10;;;;;;;-5.34;77.66;98694.38;5009379;28;20087;-68
2022/01/18 12:37:08;;;;;;;10.68;2.60;;;;;;;-5.44;79.37;98701.03;5024092;28;20048;-68
2022/01/18 12:39:49;;;;;;;10.30;2.97;;;;;;;-5.49;79.86;98708.28;5018853;28;20579;-66
2022/01/18 12:45:02;;;;;;;11.38;2.95;;;;;;;-5.88;80.51;98664.56;5038234;28;20044;-68
2022/01/18 12:47:30;;;;;;;8.38;2.60;;;;;;;-5.74;81.96;98704.22;4991178;28;20060;-67
2022/01/18 12:49:55;;;;;;;9.57;2.38;;;;;;;-5.67;82.03;98726.66;5033232;28;20125;-68
2022/01/18 12:52:22;;;;;;;13.88;3.10;;;;;;;-5.68;81.43;98716.22;4995997;28;20448;-68
2022/01/18 12:54:48;;;;;;;8.98;2.33;;;;;;;-5.70;81.23;98742.63;5002562;28;20143;-68
2022/01/18 12:57:16;;;;;;;9.65;2.67;;;;;;;-5.87;79.66;98717.09;5023360;28;20067;-67
2022/01/18 13:00:04;;;;;;;7.70;2.40;;;;;;;-5.75;79.06;98755.13;5046389;28;20178;-67
2022/01/18 13:02:30;;;;;;;13.80;2.63;;;;;;;-5.84;79.53;98760.84;4984488;28;20049;-67
2022/01/18 13:05:04;;;;;;;7.55;2.05;;;;;;;-5.96;79.93;98745.63;4968573;28;20067;-67
2022/01/18 13:07:30;;;;;;;7.60;2.17;;;;;;;-6.02;79.18;98762.56;5042425;28;20045;-69
2022/01/18 13:10:02;;;;;;;9.40;2.05;;;;;;;-5.95;79.04;98781.56;5028970;28;20072;-68
2022/01/18 13:12:34;;;;;;;8.00;2.22;;;;;;;-5.95;78.78;98800.00;4986860;28;20041;-68
2022/01/18 13:15:04;;;;;;;8.40;2.67;;;;;;;-6.09;80.46;98790.94;5033918;28;20415;-67
2022/01/18 13:23:38;;;;;;;8.05;2.63;;;;;;;-6.07;82.26;98812.78;5012713;28;20057;-68
2022/01/18 13:26:04;;;;;;;8.57;2.38;;;;;;;-6.24;81.51;98794.25;4997464;28;20044;-67
2022/01/18 13:28:34;;;;;;;9.15;2.40;;;;;;;-6.19;82.31;98808.03;5027359;28;20166;-67
2022/01/18 13:31:13;;;;;;;10.88;2.97;;;;;;;-6.22;81.63;98823.94;5012688;28;20141;-67
2022/01/18 13:34:00;;;;;;;10.18;3.50;;;;;;;-6.35;83.30;98834.16;5010304;28;20038;-67
2022/01/18 13:36:32;;;;;;;11.55;2.90;;;;;;;-6.41;83.76;98833.56;5015747;28;20094;-66
2022/01/18 13:39:39;;;;;;;7.70;2.33;;;;;;;-6.49;84.65;98846.19;5020365;28;20048;-64
2022/01/18 13:42:05;;;;;;;10.15;2.70;;;;;;;-6.65;84.98;98833.69;5000735;28;20210;-65
2022/01/18 13:44:31;;;;;;;7.53;2.55;;;;;;;-6.83;85.41;98818.69;5014161;28;20041;-64
2022/01/18 13:47:19;;;;;;;9.00;2.85;;;;;;;-6.61;85.99;98858.94;5024760;28;20045;-64
2022/01/18 13:49:45;;;;;;;10.10;2.75;;;;;;;-6.60;86.81;98865.03;5008154;28;20045;-67
2022/01/18 13:52:13;;;;;;;8.88;3.13;;;;;;;-6.57;87.73;98871.03;5021964;28;20319;-65
2022/01/18 13:54:57;;;;;;;12.63;3.58;;;;;;;-6.50;88.32;98882.16;5014502;28;20041;-64